Time;durP1;ratioP1;P1;durP2;ratioP2;P2;SDS_P1;SDS_P2;PMS_P1;PMS_P2;Temp;Humidity;BMP_temperature;BMP_pressure;BME280_temperature;BME280_humidity;BME280_pressure;Samples;Min_cycle;Max_cycle;Signal;HPM_P1;HPM_P2
2023/10/23 00:04:21;;;;;;;;;;;;;;;;;;5011198;28;5374;-57
2023/10/23 00:06:51;;;;;;;;;;;;;;;;;;5009551;28;5038;-57
2023/10/23 00:09:25;;;;;;;;;;;;;;;;;;5011926;28;5477;-58
2023/10/23 00:11:51;;;;;;;;;;;;;;;;;;5011138;28;5098;-58
2023/10/23 00:14:22;;;;;;;;;;;;;;;;;;5008622;28;1217;-58
2023/10/23 00:16:47;;;;;;;;;;;;;;;;;;5009129;28;4518;-57
2023/10/23 00:19:12;;;;;;;;;;;;;;;;;;4988264;28;5171;-60
2023/10/23 00:21:56;;;;;;;;;;;;;;;;;;4992531;28;5308;-59
2023/10/23 00:24:22;;;;;;;;;;;;;;;;;;5034177;28;4453;-60
2023/10/23 00:26:48;;;;;;;;;;;;;;;;;;5033971;28;4987;-60
2023/10/23 00:35:19;;;;;;;;;;;;;;;;;;5035004;28;4548;-60
2023/10/23 00:37:44;;;;;;;;;;;;;;;;;;5032577;28;4666;-60
2023/10/23 00:40:10;;;;;;;;;;;;;;;;;;5013092;28;5165;-60
2023/10/23 00:42:35;;;;;;;;;;;;;;;;;;5012804;28;5000;-60
2023/10/23 00:45:01;;;;;;;;;;;;;;;;;;5009360;28;4627;-60
2023/10/23 00:47:26;;;;;;;;;;;;;;;;;;5013717;28;1348;-60
2023/10/23 00:49:52;;;;;;;;;;;;;;;;;;5028289;28;5199;-60
2023/10/23 00:55:20;;;;;;;;;;;;;;;;;;5014445;28;5081;-60
2023/10/23 00:57:47;;;;;;;;;;;;;;;;;;5027532;28;4974;-60
2023/10/23 01:00:25;;;;;;;;;;;;;;;;;;5005949;28;5079;-60
2023/10/23 01:02:50;;;;;;;;;;;;;;;;;;5012989;28;5143;-60
2023/10/23 01:05:16;;;;;;;;;;;;;;;;;;5009966;28;1530;-60
2023/10/23 01:07:41;;;;;;;;;;;;;;;;;;5011891;28;4450;-60
2023/10/23 01:10:06;;;;;;;;;;;;;;;;;;5012114;28;4924;-60
2023/10/23 01:12:32;;;;;;;;;;;;;;;;;;5012983;28;5140;-60
2023/10/23 01:14:57;;;;;;;;;;;;;;;;;;5031486;28;4496;-59
2023/10/23 01:17:22;;;;;;;;;;;;;;;;;;5014359;28;1079;-59
2023/10/23 01:19:47;;;;;;;;;;;;;;;;;;5013529;28;4711;-59
2023/10/23 01:22:13;;;;;;;;;;;;;;;;;;5027807;28;4563;-59
2023/10/23 01:24:38;;;;;;;;;;;;;;;;;;5015553;28;5088;-59
2023/10/23 01:27:10;;;;;;;;;;;;;;;;;;5032981;28;5226;-59
2023/10/23 01:32:39;;;;;;;;;;;;;;;;;;5018559;28;4719;-59
2023/10/23 01:38:36;;;;;;;;;;;;;;;;;;5013812;28;5123;-59
2023/10/23 01:41:02;;;;;;;;;;;;;;;;;;5012707;28;5011;-59
2023/10/23 01:43:27;;;;;;;;;;;;;;;;;;5014771;28;4969;-59
2023/10/23 01:45:52;;;;;;;;;;;;;;;;;;5027536;28;5196;-59
2023/10/23 01:51:55;;;;;;;;;;;;;;;;;;5049033;28;4540;-59
2023/10/23 01:54:20;;;;;;;;;;;;;;;;;;5015076;28;5234;-59
2023/10/23 01:56:45;;;;;;;;;;;;;;;;;;5027505;28;1917;-60
2023/10/23 01:59:28;;;;;;;;;;;;;;;;;;5015198;28;4933;-59
2023/10/23 02:01:53;;;;;;;;;;;;;;;;;;5012695;28;5192;-58
2023/10/23 02:04:18;;;;;;;;;;;;;;;;;;5009985;28;5082;-58
2023/10/23 02:06:43;;;;;;;;;;;;;;;;;;5012016;28;5672;-58
2023/10/23 02:09:09;;;;;;;;;;;;;;;;;;5013781;28;4701;-58
2023/10/23 02:11:46;;;;;;;;;;;;;;;;;;5013105;28;1355;-58
2023/10/23 02:14:52;;;;;;;;;;;;;;;;;;5015311;28;5095;-58
2023/10/23 02:17:19;;;;;;;;;;;;;;;;;;5012199;28;5003;-59
2023/10/23 02:19:44;;;;;;;;;;;;;;;;;;5011780;28;5196;-59
2023/10/23 02:22:09;;;;;;;;;;;;;;;;;;5016547;28;5006;-58
2023/10/23 02:24:35;;;;;;;;;;;;;;;;;;5014234;28;5016;-59
2023/10/23 02:27:00;;;;;;;;;;;;;;;;;;5012424;28;4987;-58
2023/10/23 02:29:25;;;;;;;;;;;;;;;;;;5032252;28;1350;-57
2023/10/23 02:31:51;;;;;;;;;;;;;;;;;;5016513;28;4947;-58
2023/10/23 02:34:17;;;;;;;;;;;;;;;;;;5013870;28;5062;-57
2023/10/23 02:36:42;;;;;;;;;;;;;;;;;;5007041;28;5121;-59
2023/10/23 02:39:07;;;;;;;;;;;;;;;;;;5008688;28;5044;-60
2023/10/23 02:44:29;;;;;;;;;;;;;;;;;;5009016;28;5697;-60
2023/10/23 02:50:09;;;;;;;;;;;;;;;;;;5013246;28;5493;-59
2023/10/23 02:58:40;;;;;;;;;;;;;;;;;;5013350;28;5189;-60
2023/10/23 03:07:53;;;;;;;;;;;;;;;;;;5014068;28;4528;-60
2023/10/23 03:10:26;;;;;;;;;;;;;;;;;;5023830;28;4448;-59
2023/10/23 03:12:52;;;;;;;;;;;;;;;;;;5051892;28;4945;-59
2023/10/23 03:15:46;;;;;;;;;;;;;;;;;;5030209;28;5111;-59
2023/10/23 03:21:14;;;;;;;;;;;;;;;;;;5013793;28;5176;-60
2023/10/23 03:26:42;;;;;;;;;;;;;;;;;;5016151;28;4498;-59
2023/10/23 03:29:33;;;;;;;;;;;;;;;;;;5031444;28;1110;-59
2023/10/23 03:31:58;;;;;;;;;;;;;;;;;;5009971;28;4473;-59
2023/10/23 03:34:24;;;;;;;;;;;;;;;;;;5008824;28;5277;-62
2023/10/23 03:36:49;;;;;;;;;;;;;;;;;;5011190;28;4666;-59
2023/10/23 03:39:15;;;;;;;;;;;;;;;;;;5011359;28;4968;-59
2023/10/23 03:41:42;;;;;;;;;;;;;;;;;;5025993;28;1252;-59
2023/10/23 03:44:08;;;;;;;;;;;;;;;;;;5007469;28;4952;-60
2023/10/23 03:46:33;;;;;;;;;;;;;;;;;;5009173;28;4551;-59
2023/10/23 03:49:32;;;;;;;;;;;;;;;;;;5010917;28;4967;-59
2023/10/23 03:51:57;;;;;;;;;;;;;;;;;;5008019;28;5154;-61
2023/10/23 03:57:34;;;;;;;;;;;;;;;;;;5007921;28;5173;-59
2023/10/23 03:59:59;;;;;;;;;;;;;;;;;;5007588;28;5337;-59
2023/10/23 04:02:24;;;;;;;;;;;;;;;;;;5005185;28;2056;-59
2023/10/23 04:04:49;;;;;;;;;;;;;;;;;;5028046;28;5017;-59
2023/10/23 04:07:15;;;;;;;;;;;;;;;;;;5029786;28;4965;-60
2023/10/23 04:09:40;;;;;;;;;;;;;;;;;;5010932;28;4492;-59
2023/10/23 04:12:05;;;;;;;;;;;;;;;;;;5008683;28;4523;-59
2023/10/23 04:14:31;;;;;;;;;;;;;;;;;;5013706;28;1203;-59
2023/10/23 04:16:56;;;;;;;;;;;;;;;;;;5012239;28;4996;-63
2023/10/23 04:19:21;;;;;;;;;;;;;;;;;;5024874;28;4652;-60
2023/10/23 04:22:06;;;;;;;;;;;;;;;;;;5006739;28;5181;-60
2023/10/23 04:24:32;;;;;;;;;;;;;;;;;;5009002;28;4933;-60
2023/10/23 04:26:57;;;;;;;;;;;;;;;;;;5022407;28;5051;-60
2023/10/23 04:29:47;;;;;;;;;;;;;;;;;;5010592;28;1193;-59
2023/10/23 04:32:13;;;;;;;;;;;;;;;;;;5012572;28;5313;-59
2023/10/23 04:34:38;;;;;;;;;;;;;;;;;;5014312;28;4567;-59
2023/10/23 04:37:03;;;;;;;;;;;;;;;;;;5014620;28;4606;-59
2023/10/23 04:42:45;;;;;;;;;;;;;;;;;;5010957;28;4595;-59
2023/10/23 04:45:17;;;;;;;;;;;;;;;;;;5008729;28;4960;-59
2023/10/23 04:50:45;;;;;;;;;;;;;;;;;;5005699;28;5085;-59
2023/10/23 04:53:10;;;;;;;;;;;;;;;;;;5014280;28;1047;-59
2023/10/23 04:55:36;;;;;;;;;;;;;;;;;;5033433;28;4982;-59
2023/10/23 04:58:01;;;;;;;;;;;;;;;;;;5017967;28;5022;-64
2023/10/23 05:00:27;;;;;;;;;;;;;;;;;;5010893;28;4581;-59
2023/10/23 05:02:52;;;;;;;;;;;;;;;;;;5011964;28;5186;-59
2023/10/23 05:05:42;;;;;;;;;;;;;;;;;;5015279;28;1268;-59
2023/10/23 05:08:07;;;;;;;;;;;;;;;;;;5011951;28;4699;-59
2023/10/23 05:10:33;;;;;;;;;;;;;;;;;;5006441;28;4547;-59
2023/10/23 05:12:59;;;;;;;;;;;;;;;;;;5006038;28;5072;-59
2023/10/23 05:15:47;;;;;;;;;;;;;;;;;;5011163;28;5008;-59
2023/10/23 05:18:13;;;;;;;;;;;;;;;;;;5007095;28;5083;-59
2023/10/23 05:20:38;;;;;;;;;;;;;;;;;;5008297;28;945;-59
2023/10/23 05:23:04;;;;;;;;;;;;;;;;;;5010894;28;5198;-59
2023/10/23 05:25:29;;;;;;;;;;;;;;;;;;5005596;28;4474;-62
2023/10/23 05:27:54;;;;;;;;;;;;;;;;;;5008124;28;4999;-59
2023/10/23 05:30:20;;;;;;;;;;;;;;;;;;5018563;28;5042;-59
2023/10/23 05:32:45;;;;;;;;;;;;;;;;;;5021962;28;1089;-59
2023/10/23 05:35:11;;;;;;;;;;;;;;;;;;5012866;28;4568;-59
2023/10/23 05:37:37;;;;;;;;;;;;;;;;;;5005033;28;4678;-60
2023/10/23 05:40:05;;;;;;;;;;;;;;;;;;5012936;28;5447;-62
2023/10/23 05:42:31;;;;;;;;;;;;;;;;;;5013390;28;4949;-59
2023/10/23 05:47:58;;;;;;;;;;;;;;;;;;5013464;28;5225;-53
2023/10/23 05:50:24;;;;;;;;;;;;;;;;;;5013954;28;1150;-53
2023/10/23 05:52:49;;;;;;;;;;;;;;;;;;5013326;28;4957;-53
2023/10/23 05:55:15;;;;;;;;;;;;;;;;;;5016572;28;4566;-54
2023/10/23 06:00:44;;;;;;;;;;;;;;;;;;5016998;28;5164;-53
2023/10/23 06:03:09;;;;;;;;;;;;;;;;;;5031809;28;5056;-52
2023/10/23 06:05:41;;;;;;;;;;;;;;;;;;5027154;28;1449;-53
2023/10/23 06:08:06;;;;;;;;;;;;;;;;;;5041530;28;5033;-53
2023/10/23 06:10:31;;;;;;;;;;;;;;;;;;5032771;28;5645;-54
2023/10/23 06:12:57;;;;;;;;;;;;;;;;;;5048848;28;4889;-53
2023/10/23 06:15:22;;;;;;;;;;;;;;;;;;5045342;28;5082;-54
2023/10/23 06:17:48;;;;;;;;;;;;;;;;;;5011805;28;4733;-53
2023/10/23 06:20:14;;;;;;;;;;;;;;;;;;5025769;28;1447;-54
2023/10/23 06:22:39;;;;;;;;;;;;;;;;;;5027049;28;4957;-54
2023/10/23 06:25:04;;;;;;;;;;;;;;;;;;5027811;28;4808;-54
2023/10/23 06:27:30;;;;;;;;;;;;;;;;;;5013406;28;5094;-54
2023/10/23 06:29:55;;;;;;;;;;;;;;;;;;5010648;28;5145;-52
2023/10/23 06:32:21;;;;;;;;;;;;;;;;;;5013765;28;1055;-55
2023/10/23 06:37:50;;;;;;;;;;;;;;;;;;5016682;28;4446;-54
2023/10/23 06:40:15;;;;;;;;;;;;;;;;;;5014269;28;5891;-52
2023/10/23 06:42:40;;;;;;;;;;;;;;;;;;5015071;28;4877;-54
2023/10/23 06:45:06;;;;;;;;;;;;;;;;;;5014876;28;5330;-53
2023/10/23 06:47:31;;;;;;;;;;;;;;;;;;5013815;28;1236;-54
2023/10/23 06:49:57;;;;;;;;;;;;;;;;;;5015810;28;5067;-54
2023/10/23 06:52:22;;;;;;;;;;;;;;;;;;5020827;28;5003;-56
2023/10/23 06:57:56;;;;;;;;;;;;;;;;;;5023407;28;5050;-53
2023/10/23 07:00:21;;;;;;;;;;;;;;;;;;5012533;28;5114;-53
2023/10/23 07:02:49;;;;;;;;;;;;;;;;;;5022717;28;1119;-54
2023/10/23 07:05:15;;;;;;;;;;;;;;;;;;5011335;28;5031;-54
2023/10/23 07:14:11;;;;;;;;;;;;;;;;;;5050926;28;4593;-54
2023/10/23 07:19:42;;;;;;;;;;;;;;;;;;5012979;28;4480;-53
2023/10/23 07:28:50;;;;;;;;;;;;;;;;;;5015314;28;4537;-52
2023/10/23 07:31:16;;;;;;;;;;;;;;;;;;5012568;28;5107;-53
2023/10/23 07:33:41;;;;;;;;;;;;;;;;;;5012111;28;5099;-53
2023/10/23 07:36:07;;;;;;;;;;;;;;;;;;5014124;28;5054;-53
2023/10/23 07:38:57;;;;;;;;;;;;;;;;;;5013991;28;1098;-53
2023/10/23 07:41:22;;;;;;;;;;;;;;;;;;5028418;28;5018;-53
2023/10/23 07:43:47;;;;;;;;;;;;;;;;;;5010828;28;5076;-54
2023/10/23 07:46:13;;;;;;;;;;;;;;;;;;5008214;28;5086;-53
2023/10/23 07:48:38;;;;;;;;;;;;;;;;;;5011280;28;4617;-54
2023/10/23 07:51:04;;;;;;;;;;;;;;;;;;5010655;28;5084;-52
2023/10/23 07:54:03;;;;;;;;;;;;;;;;;;4998302;28;2418;-53
2023/10/23 07:59:31;;;;;;;;;;;;;;;;;;5013975;28;4573;-53
2023/10/23 08:01:57;;;;;;;;;;;;;;;;;;5011534;28;4466;-54
2023/10/23 08:07:52;;;;;;;;;;;;;;;;;;5014474;28;5113;-54
2023/10/23 08:10:18;;;;;;;;;;;;;;;;;;5016669;28;5969;-52
2023/10/23 08:12:43;;;;;;;;;;;;;;;;;;5016199;28;4928;-54
2023/10/23 08:18:25;;;;;;;;;;;;;;;;;;5010144;28;5221;-54
2023/10/23 08:20:50;;;;;;;;;;;;;;;;;;5012711;28;4754;-53
2023/10/23 08:23:15;;;;;;;;;;;;;;;;;;5012220;28;1137;-53
2023/10/23 08:25:44;;;;;;;;;;;;;;;;;;5012209;28;4516;-52
2023/10/23 08:31:24;;;;;;;;;;;;;;;;;;5012477;28;5130;-53
2023/10/23 08:37:26;;;;;;;;;;;;;;;;;;5032381;28;4941;-55
2023/10/23 08:39:51;;;;;;;;;;;;;;;;;;5032620;28;5111;-54
2023/10/23 08:42:16;;;;;;;;;;;;;;;;;;5012571;28;5028;-53
2023/10/23 08:44:42;;;;;;;;;;;;;;;;;;5032081;28;1255;-54
2023/10/23 08:50:10;;;;;;;;;;;;;;;;;;5019421;28;5142;-52
2023/10/23 08:52:43;;;;;;;;;;;;;;;;;;5009088;28;4661;-53
2023/10/23 08:55:08;;;;;;;;;;;;;;;;;;5009314;28;5571;-53
2023/10/23 09:00:36;;;;;;;;;;;;;;;;;;5015812;28;4487;-53
2023/10/23 09:06:07;;;;;;;;;;;;;;;;;;5033127;28;4613;-53
2023/10/23 09:14:44;;;;;;;;;;;;;;;;;;5009789;28;4703;-52
2023/10/23 09:20:24;;;;;;;;;;;;;;;;;;5014683;28;4739;-52
2023/10/23 09:22:53;;;;;;;;;;;;;;;;;;5009970;28;4435;-53
2023/10/23 09:25:18;;;;;;;;;;;;;;;;;;5029518;28;4667;-54
2023/10/23 09:27:44;;;;;;;;;;;;;;;;;;5017003;28;4564;-52
2023/10/23 09:30:09;;;;;;;;;;;;;;;;;;5013550;28;5012;-53
2023/10/23 09:32:36;;;;;;;;;;;;;;;;;;5015487;28;1145;-53
2023/10/23 09:35:02;;;;;;;;;;;;;;;;;;5024890;28;4437;-53
2023/10/23 09:37:27;;;;;;;;;;;;;;;;;;5016975;28;4991;-53
2023/10/23 09:39:52;;;;;;;;;;;;;;;;;;5016163;28;4670;-53
2023/10/23 09:42:18;;;;;;;;;;;;;;;;;;5013820;28;5424;-53
2023/10/23 09:48:06;;;;;;;;;;;;;;;;;;5021248;28;4955;-53
2023/10/23 09:50:31;;;;;;;;;;;;;;;;;;5011982;28;1266;-54
2023/10/23 09:52:57;;;;;;;;;;;;;;;;;;4991504;28;4964;-52
2023/10/23 09:55:23;;;;;;;;;;;;;;;;;;4999440;28;4521;-54
2023/10/23 09:58:25;;;;;;;;;;;;;;;;;;4999302;28;4871;-54
2023/10/23 10:00:51;;;;;;;;;;;;;;;;;;5014637;28;4548;-54
2023/10/23 10:03:17;;;;;;;;;;;;;;;;;;5030290;28;4692;-53
2023/10/23 10:18:32;;;;;;;;;;;;;;;;;;5031897;28;4958;-53
2023/10/23 10:21:06;;;;;;;;;;;;;;;;;;5012316;28;5001;-53
2023/10/23 10:23:31;;;;;;;;;;;;;;;;;;5012749;28;1039;-54
2023/10/23 10:26:12;;;;;;;;;;;;;;;;;;5015239;28;5407;-54
2023/10/23 10:28:38;;;;;;;;;;;;;;;;;;5037041;28;5241;-53
2023/10/23 10:31:03;;;;;;;;;;;;;;;;;;5024422;28;5135;-53
2023/10/23 10:33:29;;;;;;;;;;;;;;;;;;5021812;28;5094;-54
2023/10/23 10:38:57;;;;;;;;;;;;;;;;;;5016004;28;5059;-53
2023/10/23 10:41:22;;;;;;;;;;;;;;;;;;5030492;28;1084;-54
2023/10/23 10:43:51;;;;;;;;;;;;;;;;;;5017422;28;4452;-53
2023/10/23 10:49:19;;;;;;;;;;;;;;;;;;5013276;28;5117;-54
2023/10/23 10:51:44;;;;;;;;;;;;;;;;;;5013189;28;5029;-54
2023/10/23 10:54:11;;;;;;;;;;;;;;;;;;5014069;28;4467;-53
2023/10/23 10:56:37;;;;;;;;;;;;;;;;;;5022938;28;1973;-53
2023/10/23 10:59:14;;;;;;;;;;;;;;;;;;5015789;28;4415;-53
2023/10/23 11:01:39;;;;;;;;;;;;;;;;;;5030073;28;5116;-53
2023/10/23 11:04:05;;;;;;;;;;;;;;;;;;5035088;28;4602;-52
2023/10/23 11:06:30;;;;;;;;;;;;;;;;;;5010978;28;4881;-53
2023/10/23 11:09:06;;;;;;;;;;;;;;;;;;5008408;28;5226;-53
2023/10/23 11:12:05;;;;;;;;;;;;;;;;;;5007055;28;2221;-53
2023/10/23 11:14:30;;;;;;;;;;;;;;;;;;5013251;28;5202;-53
2023/10/23 11:16:56;;;;;;;;;;;;;;;;;;5015301;28;5041;-53
2023/10/23 11:19:33;;;;;;;;;;;;;;;;;;5011839;28;4493;-53
2023/10/23 11:22:28;;;;;;;;;;;;;;;;;;5014119;28;5173;-53
2023/10/23 11:28:10;;;;;;;;;;;;;;;;;;5009180;28;4788;-52
2023/10/23 11:30:43;;;;;;;;;;;;;;;;;;5014432;28;5254;-53
2023/10/23 11:33:08;;;;;;;;;;;;;;;;;;5016849;28;5055;-53
2023/10/23 11:35:33;;;;;;;;;;;;;;;;;;5015293;28;1914;-53
2023/10/23 11:37:59;;;;;;;;;;;;;;;;;;5013342;28;4633;-55
2023/10/23 11:40:25;;;;;;;;;;;;;;;;;;5023382;28;5081;-53
2023/10/23 11:42:54;;;;;;;;;;;;;;;;;;5026202;28;5035;-54
2023/10/23 11:48:24;;;;;;;;;;;;;;;;;;5014954;28;4962;-53
2023/10/23 11:50:49;;;;;;;;;;;;;;;;;;5008914;28;4688;-55
2023/10/23 11:53:15;;;;;;;;;;;;;;;;;;5018488;28;1303;-53
2023/10/23 11:58:44;;;;;;;;;;;;;;;;;;5015485;28;4677;-55
2023/10/23 12:01:09;;;;;;;;;;;;;;;;;;5027132;28;5027;-53
2023/10/23 12:03:34;;;;;;;;;;;;;;;;;;5006327;28;5133;-54
2023/10/23 12:05:59;;;;;;;;;;;;;;;;;;5032503;28;4641;-53
2023/10/23 12:08:24;;;;;;;;;;;;;;;;;;5005180;28;1152;-55
2023/10/23 12:10:50;;;;;;;;;;;;;;;;;;5012506;28;4618;-53
2023/10/23 12:13:15;;;;;;;;;;;;;;;;;;5013067;28;4456;-54
2023/10/23 12:15:40;;;;;;;;;;;;;;;;;;5009744;28;4644;-53
2023/10/23 12:18:06;;;;;;;;;;;;;;;;;;5009711;28;5074;-53
2023/10/23 12:20:31;;;;;;;;;;;;;;;;;;5010974;28;1217;-53
2023/10/23 12:22:56;;;;;;;;;;;;;;;;;;5017633;28;4509;-54
2023/10/23 12:25:22;;;;;;;;;;;;;;;;;;5025732;28;5035;-54
2023/10/23 12:27:47;;;;;;;;;;;;;;;;;;5009789;28;4804;-52
2023/10/23 12:30:15;;;;;;;;;;;;;;;;;;5019165;28;4519;-54
2023/10/23 12:32:40;;;;;;;;;;;;;;;;;;5025139;28;943;-52
2023/10/23 12:35:36;;;;;;;;;;;;;;;;;;5010437;28;4631;-53
2023/10/23 12:38:01;;;;;;;;;;;;;;;;;;5020177;28;4672;-54
2023/10/23 12:40:27;;;;;;;;;;;;;;;;;;5011525;28;4517;-51
2023/10/23 12:42:53;;;;;;;;;;;;;;;;;;5023442;28;5021;-54
2023/10/23 12:45:18;;;;;;;;;;;;;;;;;;4994834;28;5121;-55
2023/10/23 12:50:46;;;;;;;;;;;;;;;;;;5005239;28;5505;-53
2023/10/23 12:53:11;;;;;;;;;;;;;;;;;;5012810;28;992;-54
2023/10/23 12:55:37;;;;;;;;;;;;;;;;;;4994372;28;5003;-53
2023/10/23 12:58:04;;;;;;;;;;;;;;;;;;5012850;28;4577;-51
2023/10/23 13:00:29;;;;;;;;;;;;;;;;;;5012028;28;5116;-53
2023/10/23 13:02:55;;;;;;;;;;;;;;;;;;5012608;28;4659;-54
2023/10/23 13:05:20;;;;;;;;;;;;;;;;;;5018261;28;1086;-54
2023/10/23 13:07:45;;;;;;;;;;;;;;;;;;5014259;28;4622;-53
2023/10/23 13:10:10;;;;;;;;;;;;;;;;;;5022630;28;5077;-52
2023/10/23 13:12:36;;;;;;;;;;;;;;;;;;5023874;28;4657;-51
2023/10/23 13:15:02;;;;;;;;;;;;;;;;;;5036999;28;4600;-52
2023/10/23 13:17:27;;;;;;;;;;;;;;;;;;5007227;28;1152;-53
2023/10/23 13:19:54;;;;;;;;;;;;;;;;;;5016767;28;4972;-53
2023/10/23 13:22:19;;;;;;;;;;;;;;;;;;5017390;28;5007;-53
2023/10/23 13:24:45;;;;;;;;;;;;;;;;;;5013181;28;5184;-54
2023/10/23 13:27:12;;;;;;;;;;;;;;;;;;5035221;28;4485;-53
2023/10/23 13:29:38;;;;;;;;;;;;;;;;;;5037886;28;1071;-54
2023/10/23 13:32:03;;;;;;;;;;;;;;;;;;5035626;28;5054;-51
2023/10/23 13:34:29;;;;;;;;;;;;;;;;;;5033818;28;5194;-54
2023/10/23 13:36:54;;;;;;;;;;;;;;;;;;5034139;28;5138;-54
2023/10/23 13:42:22;;;;;;;;;;;;;;;;;;5037035;28;4421;-54
2023/10/23 13:44:48;;;;;;;;;;;;;;;;;;5047518;28;5011;-53
2023/10/23 13:47:16;;;;;;;;;;;;;;;;;;5022578;28;1078;-54
2023/10/23 13:49:41;;;;;;;;;;;;;;;;;;5037060;28;4887;-51
2023/10/23 13:52:06;;;;;;;;;;;;;;;;;;5045152;28;5105;-53
2023/10/23 13:54:32;;;;;;;;;;;;;;;;;;5049620;28;5111;-53
2023/10/23 13:56:57;;;;;;;;;;;;;;;;;;5016963;28;5055;-53
2023/10/23 13:59:48;;;;;;;;;;;;;;;;;;5014597;28;1094;-53
2023/10/23 14:02:14;;;;;;;;;;;;;;;;;;5013354;28;5783;-53
2023/10/23 14:04:39;;;;;;;;;;;;;;;;;;5013628;28;4897;-53
2023/10/23 14:07:04;;;;;;;;;;;;;;;;;;5012759;28;4677;-53
2023/10/23 14:15:35;;;;;;;;;;;;;;;;;;5056151;28;5035;-53
2023/10/23 14:18:34;;;;;;;;;;;;;;;;;;5036608;28;4969;-53
2023/10/23 14:21:06;;;;;;;;;;;;;;;;;;5012704;28;4475;-51
2023/10/23 14:23:31;;;;;;;;;;;;;;;;;;5013662;28;1110;-55
2023/10/23 14:26:27;;;;;;;;;;;;;;;;;;5011151;28;4998;-52
2023/10/23 14:31:57;;;;;;;;;;;;;;;;;;5009606;28;4691;-53
2023/10/23 14:34:27;;;;;;;;;;;;;;;;;;5026977;28;5016;-52
2023/10/23 14:36:59;;;;;;;;;;;;;;;;;;5008244;28;5292;-53
2023/10/23 14:39:29;;;;;;;;;;;;;;;;;;5041033;28;4495;-53
2023/10/23 14:48:19;;;;;;;;;;;;;;;;;;5018007;28;5186;-53
2023/10/23 14:53:47;;;;;;;;;;;;;;;;;;5011903;28;5091;-52
2023/10/23 15:02:23;;;;;;;;;;;;;;;;;;5015343;28;4569;-50
2023/10/23 15:05:10;;;;;;;;;;;;;;;;;;5015799;28;4615;-49
2023/10/23 15:10:46;;;;;;;;;;;;;;;;;;5014140;28;4993;-49
2023/10/23 15:13:12;;;;;;;;;;;;;;;;;;5013037;28;4446;-50
2023/10/23 15:15:37;;;;;;;;;;;;;;;;;;5012101;28;5182;-50
2023/10/23 15:18:03;;;;;;;;;;;;;;;;;;5015281;28;4776;-51
2023/10/23 15:20:55;;;;;;;;;;;;;;;;;;5013065;28;1098;-51
2023/10/23 15:23:27;;;;;;;;;;;;;;;;;;5013924;28;4715;-52
2023/10/23 15:29:02;;;;;;;;;;;;;;;;;;5015042;28;5078;-50
2023/10/23 15:31:28;;;;;;;;;;;;;;;;;;5011159;28;4641;-50
2023/10/23 15:33:53;;;;;;;;;;;;;;;;;;5014795;28;4939;-51
2023/10/23 15:36:20;;;;;;;;;;;;;;;;;;5009980;28;4890;-53
2023/10/23 15:38:45;;;;;;;;;;;;;;;;;;4999575;28;2105;-49
2023/10/23 15:41:17;;;;;;;;;;;;;;;;;;5013308;28;5023;-52
2023/10/23 15:43:44;;;;;;;;;;;;;;;;;;5012175;28;4411;-52
2023/10/23 15:46:10;;;;;;;;;;;;;;;;;;5013414;28;4976;-53
2023/10/23 15:48:36;;;;;;;;;;;;;;;;;;5016174;28;5110;-53
2023/10/23 15:51:01;;;;;;;;;;;;;;;;;;5010639;28;4608;-50
2023/10/23 15:53:26;;;;;;;;;;;;;;;;;;5015447;28;1057;-49
2023/10/23 16:05:26;;;;;;;;;;;;;;;;;;5009081;28;4626;-52
2023/10/23 16:07:52;;;;;;;;;;;;;;;;;;5017161;28;5157;-51
2023/10/23 16:10:17;;;;;;;;;;;;;;;;;;5047622;28;5044;-52
2023/10/23 16:12:43;;;;;;;;;;;;;;;;;;5010993;28;5025;-51
2023/10/23 16:15:18;;;;;;;;;;;;;;;;;;5010049;28;4579;-50
2023/10/23 16:17:43;;;;;;;;;;;;;;;;;;5010370;28;1085;-52
2023/10/23 16:20:08;;;;;;;;;;;;;;;;;;5007259;28;5017;-53
2023/10/23 16:25:43;;;;;;;;;;;;;;;;;;5005306;28;5054;-52
2023/10/23 16:28:09;;;;;;;;;;;;;;;;;;5012802;28;4660;-50
2023/10/23 16:30:35;;;;;;;;;;;;;;;;;;5007825;28;4468;-49
2023/10/23 16:33:00;;;;;;;;;;;;;;;;;;5009456;28;4899;-51
2023/10/23 16:35:28;;;;;;;;;;;;;;;;;;5027008;28;1975;-52
2023/10/23 16:40:56;;;;;;;;;;;;;;;;;;5032656;28;4928;-53
2023/10/23 16:43:23;;;;;;;;;;;;;;;;;;5039871;28;4693;-48
2023/10/23 16:45:48;;;;;;;;;;;;;;;;;;5039541;28;4798;-49
2023/10/23 16:48:13;;;;;;;;;;;;;;;;;;5021022;28;4583;-54
2023/10/23 16:53:41;;;;;;;;;;;;;;;;;;5033617;28;4724;-52
2023/10/23 16:56:06;;;;;;;;;;;;;;;;;;5033161;28;4976;-51
2023/10/23 16:58:32;;;;;;;;;;;;;;;;;;5033570;28;4892;-50
2023/10/23 17:00:57;;;;;;;;;;;;;;;;;;5033763;28;4535;-50
2023/10/23 17:12:23;;;;;;;;;;;;;;;;;;5011489;28;5125;-51
2023/10/23 17:14:49;;;;;;;;;;;;;;;;;;5010400;28;5233;-49
2023/10/23 17:17:14;;;;;;;;;;;;;;;;;;5009903;28;1946;-49
2023/10/23 17:19:44;;;;;;;;;;;;;;;;;;5043422;28;5770;-49
2023/10/23 17:22:18;;;;;;;;;;;;;;;;;;5008883;28;4972;-51
2023/10/23 17:24:43;;;;;;;;;;;;;;;;;;4989319;28;5091;-49
2023/10/23 17:27:09;;;;;;;;;;;;;;;;;;5010858;28;5362;-52
2023/10/23 17:29:43;;;;;;;;;;;;;;;;;;5011185;28;1029;-50
2023/10/23 17:35:11;;;;;;;;;;;;;;;;;;5014120;28;4993;-49
2023/10/23 17:37:37;;;;;;;;;;;;;;;;;;5006905;28;4616;-52
2023/10/23 17:40:05;;;;;;;;;;;;;;;;;;5013572;28;5048;-52
2023/10/23 17:42:31;;;;;;;;;;;;;;;;;;5013188;28;4979;-52
2023/10/23 17:44:59;;;;;;;;;;;;;;;;;;5009119;28;5021;-51
2023/10/23 17:47:26;;;;;;;;;;;;;;;;;;5011154;28;1090;-49
2023/10/23 17:49:54;;;;;;;;;;;;;;;;;;5014922;28;5176;-51
2023/10/23 17:52:20;;;;;;;;;;;;;;;;;;5013541;28;4952;-51
2023/10/23 17:54:47;;;;;;;;;;;;;;;;;;5017856;28;4566;-52
2023/10/23 17:57:15;;;;;;;;;;;;;;;;;;5015810;28;5225;-51
2023/10/23 17:59:41;;;;;;;;;;;;;;;;;;5015361;28;1157;-52
2023/10/23 18:08:12;;;;;;;;;;;;;;;;;;5012857;28;5115;-52
2023/10/23 18:10:38;;;;;;;;;;;;;;;;;;5017746;28;4879;-51
2023/10/23 18:13:03;;;;;;;;;;;;;;;;;;5029638;28;5177;-52
2023/10/23 18:15:28;;;;;;;;;;;;;;;;;;5011624;28;4993;-53
2023/10/23 18:17:56;;;;;;;;;;;;;;;;;;5016022;28;5100;-52
2023/10/23 18:20:27;;;;;;;;;;;;;;;;;;5015730;28;1157;-52
2023/10/23 18:23:13;;;;;;;;;;;;;;;;;;4998354;28;5030;-52
2023/10/23 18:25:39;;;;;;;;;;;;;;;;;;5016531;28;5236;-52
2023/10/23 18:28:04;;;;;;;;;;;;;;;;;;5015277;28;4503;-52
2023/10/23 18:33:32;;;;;;;;;;;;;;;;;;5015091;28;5239;-51
2023/10/23 18:36:01;;;;;;;;;;;;;;;;;;4998464;28;4505;-51
2023/10/23 18:38:26;;;;;;;;;;;;;;;;;;5031858;28;1409;-51
2023/10/23 18:43:56;;;;;;;;;;;;;;;;;;5016345;28;4960;-49
2023/10/23 18:49:25;;;;;;;;;;;;;;;;;;5016650;28;4972;-52
2023/10/23 18:54:53;;;;;;;;;;;;;;;;;;5016251;28;5171;-55
2023/10/23 18:57:18;;;;;;;;;;;;;;;;;;5015877;28;5055;-54
2023/10/23 18:59:45;;;;;;;;;;;;;;;;;;5016612;28;1063;-54
2023/10/23 19:02:11;;;;;;;;;;;;;;;;;;5013241;28;4815;-52
2023/10/23 19:04:36;;;;;;;;;;;;;;;;;;4993213;28;4714;-54
2023/10/23 19:07:02;;;;;;;;;;;;;;;;;;5015861;28;4424;-53
2023/10/23 19:09:34;;;;;;;;;;;;;;;;;;5032178;28;5094;-53
2023/10/23 19:11:59;;;;;;;;;;;;;;;;;;5014353;28;5193;-54
2023/10/23 19:20:36;;;;;;;;;;;;;;;;;;5012788;28;4788;-58
2023/10/23 19:23:11;;;;;;;;;;;;;;;;;;5012277;28;5023;-58
2023/10/23 19:29:07;;;;;;;;;;;;;;;;;;5016125;28;4839;-59
2023/10/23 19:31:33;;;;;;;;;;;;;;;;;;5010107;28;5028;-60
2023/10/23 19:33:58;;;;;;;;;;;;;;;;;;5012487;28;5113;-58
2023/10/23 19:36:24;;;;;;;;;;;;;;;;;;5013792;28;5223;-58
2023/10/23 19:41:56;;;;;;;;;;;;;;;;;;5031408;28;5051;-60
2023/10/23 19:44:22;;;;;;;;;;;;;;;;;;5034155;28;974;-51
2023/10/23 19:47:04;;;;;;;;;;;;;;;;;;5033003;28;4381;-60
2023/10/23 19:52:35;;;;;;;;;;;;;;;;;;5034838;28;5022;-51
2023/10/23 19:58:03;;;;;;;;;;;;;;;;;;5014810;28;5046;-47
2023/10/23 20:00:31;;;;;;;;;;;;;;;;;;5014910;28;5170;-50
2023/10/23 20:02:57;;;;;;;;;;;;;;;;;;5014600;28;4411;-47
2023/10/23 20:05:27;;;;;;;;;;;;;;;;;;5015363;28;1174;-51
2023/10/23 20:10:55;;;;;;;;;;;;;;;;;;5014933;28;4418;-49
2023/10/23 20:13:20;;;;;;;;;;;;;;;;;;5014263;28;5020;-50
2023/10/23 20:15:45;;;;;;;;;;;;;;;;;;5014593;28;4971;-49
2023/10/23 20:18:12;;;;;;;;;;;;;;;;;;5014669;28;4423;-47
2023/10/23 20:23:47;;;;;;;;;;;;;;;;;;5011276;28;4511;-48
2023/10/23 20:29:14;;;;;;;;;;;;;;;;;;5015426;28;4566;-48
2023/10/23 20:31:40;;;;;;;;;;;;;;;;;;5014369;28;4662;-48
2023/10/23 20:34:05;;;;;;;;;;;;;;;;;;5014294;28;4579;-47
2023/10/23 20:36:30;;;;;;;;;;;;;;;;;;5014136;28;5084;-48
2023/10/23 20:38:55;;;;;;;;;;;;;;;;;;5014148;28;4403;-48
2023/10/23 20:44:24;;;;;;;;;;;;;;;;;;5015182;28;4594;-47
2023/10/23 20:49:52;;;;;;;;;;;;;;;;;;5013235;28;5012;-51
2023/10/23 20:52:18;;;;;;;;;;;;;;;;;;5029289;28;4505;-49
2023/10/23 20:54:43;;;;;;;;;;;;;;;;;;5014243;28;5029;-48
2023/10/23 20:57:09;;;;;;;;;;;;;;;;;;5014641;28;4686;-48
2023/10/23 20:59:34;;;;;;;;;;;;;;;;;;4999153;28;1812;-51
2023/10/23 21:01:59;;;;;;;;;;;;;;;;;;5032170;28;4969;-56
2023/10/23 21:04:24;;;;;;;;;;;;;;;;;;5034105;28;4458;-61
2023/10/23 21:06:50;;;;;;;;;;;;;;;;;;5033667;28;4908;-60
2023/10/23 21:09:15;;;;;;;;;;;;;;;;;;5033747;28;5156;-56
2023/10/23 21:14:46;;;;;;;;;;;;;;;;;;5007095;28;5143;-52
2023/10/23 21:20:15;;;;;;;;;;;;;;;;;;5034649;28;4592;-58
2023/10/23 21:22:40;;;;;;;;;;;;;;;;;;5033054;28;5116;-58
2023/10/23 21:25:05;;;;;;;;;;;;;;;;;;5034550;28;5111;-57
2023/10/23 21:27:31;;;;;;;;;;;;;;;;;;5037606;28;4617;-58
2023/10/23 21:32:59;;;;;;;;;;;;;;;;;;5034170;28;4612;-58
2023/10/23 21:35:24;;;;;;;;;;;;;;;;;;5037834;28;1973;-58
2023/10/23 21:37:49;;;;;;;;;;;;;;;;;;5037318;28;5003;-58
2023/10/23 21:40:14;;;;;;;;;;;;;;;;;;5037726;28;4575;-58
2023/10/23 21:45:42;;;;;;;;;;;;;;;;;;5032304;28;4881;-57
2023/10/23 21:48:08;;;;;;;;;;;;;;;;;;5052641;28;4596;-57
2023/10/23 21:50:34;;;;;;;;;;;;;;;;;;5038184;28;1179;-58